Time;durP1;ratioP1;P1;durP2;ratioP2;P2;SDS_P1;SDS_P2;PMS_P1;PMS_P2;Temp;Humidity;BMP_temperature;BMP_pressure;BME280_temperature;BME280_humidity;BME280_pressure;Samples;Min_cycle;Max_cycle;Signal;HPM_P1;HPM_P2
2022/06/03 00:00:00;;;;;;;;;7.50;7.50;;;;;18.23;41.65;100640.69;4984069;28;45358;-71
2022/06/03 00:02:31;;;;;;;;;7.00;7.00;;;;;18.20;42.45;100637.41;4974031;28;45290;-70
2022/06/03 00:05:12;;;;;;;;;4.00;4.00;;;;;18.18;41.62;100632.19;4972719;28;48394;-68
2022/06/03 00:07:44;;;;;;;;;9.25;8.00;;;;;18.16;42.09;100636.78;4973299;28;45315;-69
2022/06/03 00:10:25;;;;;;;;;7.00;7.00;;;;;18.13;42.24;100638.78;4973726;28;45422;-69
2022/06/03 00:12:58;;;;;;;;;7.50;6.00;;;;;18.12;42.33;100635.31;4974374;28;45338;-69
2022/06/03 00:15:55;;;;;;;;;8.75;7.75;;;;;18.08;42.17;100623.16;4973285;28;45334;-71
2022/06/03 00:18:40;;;;;;;;;8.50;8.00;;;;;18.06;42.22;100614.44;4972821;28;45457;-69
2022/06/03 00:21:11;;;;;;;;;7.00;7.00;;;;;18.04;42.39;100619.88;4973296;28;45274;-70
2022/06/03 00:23:57;;;;;;;;;5.00;5.00;;;;;18.03;42.18;100614.66;4973748;28;45298;-68
2022/06/03 00:27:02;;;;;;;;;7.00;7.00;;;;;18.01;42.49;100621.88;4973983;28;45402;-69
2022/06/03 00:29:45;;;;;;;;;8.00;7.50;;;;;18.00;42.36;100623.69;4972090;28;45803;-69
2022/06/03 00:32:52;;;;;;;;;9.25;8.25;;;;;17.95;42.38;100616.00;4972867;27;45383;-67
2022/06/03 00:35:29;;;;;;;;;9.25;8.00;;;;;17.92;42.71;100626.03;4971887;28;45701;-67
2022/06/03 00:38:04;;;;;;;;;11.50;9.50;;;;;17.88;42.78;100621.88;4971805;28;47135;-67
2022/06/03 00:40:40;;;;;;;;;4.75;4.75;;;;;17.87;42.63;100607.72;4971599;28;45279;-68
2022/06/03 00:43:27;;;;;;;;;5.75;5.75;;;;;17.84;42.69;100609.75;4972529;28;45406;-68
2022/06/03 00:45:59;;;;;;;;;4.00;4.00;;;;;17.83;42.77;100616.03;4972911;28;45339;-67
2022/06/03 00:48:52;;;;;;;;;5.75;5.75;;;;;17.77;43.16;100614.63;4972855;28;45474;-68
2022/06/03 00:51:36;;;;;;;;;4.50;4.50;;;;;17.66;43.09;100599.44;4972497;28;45321;-68
2022/06/03 00:54:20;;;;;;;;;6.25;6.25;;;;;17.71;43.29;100609.75;4971489;28;45358;-69
2022/06/03 00:57:02;;;;;;;;;7.00;7.00;;;;;17.67;43.08;100615.28;4972885;28;45509;-69
2022/06/03 00:59:46;;;;;;;;;5.75;5.75;;;;;17.66;43.48;100631.38;4958553;28;46959;-71
2022/06/03 01:02:13;;;;;;;;;7.50;5.50;;;;;17.64;43.36;100619.97;4976340;28;45348;-71
2022/06/03 01:05:04;;;;;;;;;5.50;5.50;;;;;17.62;43.37;100620.06;4976092;28;45283;-69
2022/06/03 01:08:03;;;;;;;;;5.00;5.00;;;;;17.58;43.70;100618.59;4976547;28;45260;-69
2022/06/03 01:10:59;;;;;;;;;5.25;5.25;;;;;17.55;43.83;100621.47;4976204;28;45345;-71
2022/06/03 01:14:01;;;;;;;;;5.00;5.00;;;;;17.52;44.04;100616.34;4976261;28;45350;-68
2022/06/03 01:16:53;;;;;;;;;5.25;5.25;;;;;17.46;43.73;100608.81;4985078;28;45482;-72
2022/06/03 01:20:01;;;;;;;;;5.00;5.00;;;;;17.45;44.01;100609.75;4981473;28;45340;-70
2022/06/03 01:22:50;;;;;;;;;4.00;4.00;;;;;17.43;44.08;100614.34;4976920;28;46068;-69
2022/06/03 01:25:38;;;;;;;;;5.75;5.75;;;;;17.38;44.14;100618.16;4975840;28;45513;-68
2022/06/03 01:29:04;;;;;;;;;4.00;4.00;;;;;17.36;44.21;100614.75;4975530;27;45335;-69
2022/06/03 01:31:37;;;;;;;;;4.75;4.75;;;;;17.34;44.19;100618.47;5016780;28;45420;-71
2022/06/03 01:34:36;;;;;;;;;3.75;3.75;;;;;17.31;44.23;100614.22;4976051;28;46250;-71
2022/06/03 01:37:09;;;;;;;;;5.00;5.00;;;;;17.30;43.85;100606.34;4976744;28;45266;-67
2022/06/03 01:39:56;;;;;;;;;4.50;4.50;;;;;17.25;44.09;100606.66;4976471;28;45309;-71
2022/06/03 01:43:03;;;;;;;;;5.25;5.25;;;;;17.25;44.25;100611.97;4975893;28;45497;-71
2022/06/03 01:45:59;;;;;;;;;4.50;4.50;;;;;17.22;44.40;100606.88;4916911;28;46240;-71
2022/06/03 01:48:33;;;;;;;;;5.00;5.00;;;;;17.19;44.77;100601.75;4975375;28;45422;-71
2022/06/03 01:51:01;;;;;;;;;5.75;5.75;;;;;17.14;44.70;100599.41;4977977;28;45362;-71
2022/06/03 01:53:51;;;;;;;;;5.00;5.00;;;;;17.12;44.50;100595.16;4975124;28;45405;-71
2022/06/03 01:56:22;;;;;;;;;4.50;4.50;;;;;17.06;44.48;100581.34;4976268;28;45393;-71
2022/06/03 01:59:15;;;;;;;;;4.75;4.75;;;;;17.03;45.34;100583.34;4976202;28;45311;-69
2022/06/03 02:02:16;;;;;;;;;6.00;6.00;;;;;16.97;45.60;100583.72;4976108;28;45416;-69
2022/06/03 02:04:47;;;;;;;;;6.25;6.25;;;;;16.92;45.13;100584.00;4990642;28;45416;-69
2022/06/03 02:07:45;;;;;;;;;6.00;6.00;;;;;16.89;45.65;100589.53;4977648;28;46036;-68
2022/06/03 02:10:44;;;;;;;;;6.50;5.25;;;;;16.84;45.56;100579.22;4977417;28;45278;-66
2022/06/03 02:13:18;;;;;;;;;5.00;5.00;;;;;16.80;45.56;100570.59;4976952;28;45237;-68
2022/06/03 02:16:12;;;;;;;;;6.00;6.00;;;;;16.79;45.51;100568.06;4975338;28;45295;-67
2022/06/03 02:18:59;;;;;;;;;4.25;4.25;;;;;16.79;45.56;100563.59;4975052;28;46239;-67
2022/06/03 02:21:49;;;;;;;;;4.75;4.75;;;;;16.79;45.30;100557.44;4973764;28;45413;-68
2022/06/03 02:24:21;;;;;;;;;5.00;5.00;;;;;16.78;45.03;100550.41;4977110;28;45296;-70
2022/06/03 02:27:23;;;;;;;;;6.00;6.00;;;;;16.77;45.12;100554.03;4977454;28;45451;-70
2022/06/03 02:33:20;;;;;;;;;5.75;5.75;;;;;16.71;45.23;100539.34;4977785;28;45480;-71
2022/06/03 02:36:23;;;;;;;;;5.50;5.50;;;;;16.70;45.51;100537.63;4978191;28;45297;-72
2022/06/03 02:39:17;;;;;;;;;4.00;4.00;;;;;16.69;45.72;100540.41;4976903;28;45549;-69
2022/06/03 02:42:10;;;;;;;;;6.00;6.00;;;;;16.63;46.01;100539.00;4978023;28;45532;-68
2022/06/03 02:44:45;;;;;;;;;5.00;5.00;;;;;16.60;45.89;100533.91;4977603;28;45337;-68
2022/06/03 02:48:01;;;;;;;;;4.00;4.00;;;;;16.55;45.98;100526.25;4977848;28;45367;-67
2022/06/03 02:50:58;;;;;;;;;5.00;5.00;;;;;16.51;46.01;100527.41;4976622;28;45360;-70
2022/06/03 02:53:45;;;;;;;;;5.25;5.25;;;;;16.47;46.34;100534.72;4974572;28;45378;-68
2022/06/03 02:56:51;;;;;;;;;6.00;6.00;;;;;16.47;46.22;100524.09;4974805;28;45281;-67
2022/06/03 02:59:34;;;;;;;;;5.00;5.00;;;;;16.43;46.46;100519.06;4974256;28;45303;-67
2022/06/03 03:02:41;;;;;;;;;4.00;4.00;;;;;16.41;46.23;100510.34;4973020;28;45194;-69
2022/06/03 03:05:44;;;;;;;;;6.25;5.00;;;;;16.40;46.18;100520.13;4974376;28;46220;-68
2022/06/03 03:08:28;;;;;;;;;4.50;4.50;;;;;16.38;46.49;100515.88;4974456;28;45543;-70
2022/06/03 03:11:05;;;;;;;;;4.00;4.00;;;;;16.35;46.26;100507.16;4975721;28;45394;-73
2022/06/03 03:13:47;;;;;;;;;5.25;5.25;;;;;16.37;46.23;100504.41;4976144;28;45595;-70
2022/06/03 03:16:20;;;;;;;;;6.00;5.00;;;;;16.38;46.21;100519.38;4975896;28;45539;-72
2022/06/03 03:19:03;;;;;;;;;3.00;3.00;;;;;16.41;46.21;100528.94;4975188;28;45257;-72
2022/06/03 03:21:41;;;;;;;;;5.00;5.00;;;;;16.40;46.34;100532.53;4974786;28;45331;-71
2022/06/03 03:24:10;;;;;;;;;4.00;4.00;;;;;16.39;45.70;100521.09;4976110;28;45370;-69
2022/06/03 03:27:06;;;;;;;;;5.75;5.75;;;;;16.41;45.99;100526.28;4974920;28;45409;-69
2022/06/03 03:29:46;;;;;;;;;5.00;5.00;;;;;16.42;46.18;100528.84;4974581;28;45234;-68
2022/06/03 03:32:20;;;;;;;;;1.75;1.75;;;;;16.45;45.91;100531.31;4974992;28;45449;-71
2022/06/03 03:35:07;;;;;;;;;4.50;4.50;;;;;16.45;46.14;100528.66;4974348;28;45309;-70
2022/06/03 03:37:38;;;;;;;;;5.00;5.00;;;;;16.47;46.25;100528.56;4974420;28;46068;-67
2022/06/03 03:40:12;;;;;;;;;4.75;4.75;;;;;16.48;45.89;100528.44;4973337;28;45260;-67
2022/06/03 03:42:55;;;;;;;;;5.50;5.50;;;;;16.47;45.89;100521.44;4973490;28;45319;-69
2022/06/03 03:45:30;;;;;;;;;5.00;5.00;;;;;16.50;46.45;100525.69;4973714;28;45398;-68
2022/06/03 03:48:01;;;;;;;;;9.00;5.00;;;;;16.50;46.15;100521.22;4973453;28;45382;-68
2022/06/03 03:51:04;;;;;;;;;5.50;5.50;;;;;16.52;46.14;100520.28;4973139;28;45276;-69
2022/06/03 03:53:29;;;;;;;;;5.50;5.00;;;;;16.50;46.11;100512.44;4974505;28;45349;-69
2022/06/03 03:56:14;;;;;;;;;5.00;5.00;;;;;16.49;46.19;100516.03;4972991;28;45572;-70
2022/06/03 03:59:26;;;;;;;;;5.50;5.50;;;;;16.47;46.11;100520.59;4976233;28;46682;-67
2022/06/03 04:01:57;;;;;;;;;5.25;5.25;;;;;16.46;45.92;100519.72;4975930;28;45509;-67
2022/06/03 04:04:47;;;;;;;;;6.00;6.00;;;;;16.45;46.14;100518.03;4975101;28;45387;-68
2022/06/03 04:07:24;;;;;;;;;5.00;5.00;;;;;16.44;46.06;100521.63;4973275;28;45284;-68
2022/06/03 04:10:20;;;;;;;;;5.25;5.25;;;;;16.43;46.11;100517.28;4973379;28;46456;-70
2022/06/03 04:13:19;;;;;;;;;4.00;4.00;;;;;16.43;46.27;100519.94;4973548;28;45506;-68
2022/06/03 04:15:56;;;;;;;;;7.00;5.50;;;;;16.46;46.31;100525.03;4973632;28;45396;-68
2022/06/03 04:18:52;;;;;;;;;6.00;4.50;;;;;16.52;46.37;100521.16;4973328;28;45280;-68
2022/06/03 04:21:29;;;;;;;;;5.25;5.25;;;;;16.59;46.31;100525.09;4973223;28;45334;-67
2022/06/03 04:24:23;;;;;;;;;5.00;5.00;;;;;16.62;46.46;100516.06;4972042;28;45490;-70
2022/06/03 04:27:03;;;;;;;;;8.00;8.00;;;;;16.65;46.87;100527.34;4972633;28;45266;-71
2022/06/03 04:29:41;;;;;;;;;8.00;5.25;;;;;16.68;46.58;100517.47;4973570;28;45500;-67
2022/06/03 04:32:45;;;;;;;;;6.25;6.25;;;;;16.71;46.49;100517.25;4972749;28;46067;-70
2022/06/03 04:35:29;;;;;;;;;3.25;3.25;;;;;16.74;46.54;100509.91;4973797;28;45643;-69
2022/06/03 04:38:25;;;;;;;;;6.50;6.25;;;;;16.78;46.53;100516.72;4975220;28;45316;-69
2022/06/03 04:41:05;;;;;;;;;7.00;7.00;;;;;16.80;46.56;100522.78;4974030;28;45258;-70
2022/06/03 04:43:49;;;;;;;;;5.50;5.50;;;;;16.82;46.89;100524.47;4975537;28;45408;-69
2022/06/03 04:46:52;;;;;;;;;7.75;6.75;;;;;16.89;46.38;100528.44;4975165;28;45407;-68
2022/06/03 04:49:23;;;;;;;;;5.75;5.75;;;;;16.95;46.14;100530.66;4978279;28;45323;-68
2022/06/03 04:52:13;;;;;;;;;7.00;6.00;;;;;16.99;46.29;100534.00;4975416;28;45318;-67
2022/06/03 04:54:53;;;;;;;;;7.25;7.00;;;;;17.01;46.16;100530.31;4975117;28;46420;-68
2022/06/03 04:58:06;;;;;;;;;7.00;7.00;;;;;17.04;46.43;100526.56;4974631;28;45371;-69
2022/06/03 05:00:48;;;;;;;;;7.00;7.00;;;;;17.11;46.23;100532.34;5010387;28;45556;-68
2022/06/03 05:03:50;;;;;;;;;6.00;6.00;;;;;17.17;46.28;100534.56;4974981;28;45251;-68
2022/06/03 05:06:33;;;;;;;;;7.75;7.25;;;;;17.21;45.98;100530.75;4979620;28;45396;-68
2022/06/03 05:09:54;;;;;;;;;6.25;6.25;;;;;17.22;45.99;100525.31;4981281;28;45386;-68
2022/06/03 05:12:44;;;;;;;;;5.75;5.00;;;;;17.31;45.90;100525.63;4975419;28;45374;-69
2022/06/03 05:15:31;;;;;;;;;9.25;8.75;;;;;17.34;46.09;100512.97;4977349;28;45244;-69
2022/06/03 05:18:34;;;;;;;;;6.50;6.50;;;;;17.38;46.02;100502.97;4977524;28;46182;-68
2022/06/03 05:21:11;;;;;;;;;7.75;5.00;;;;;17.37;46.03;100507.44;4974524;28;45264;-70
2022/06/03 05:24:14;;;;;;;;;5.75;5.75;;;;;17.34;46.02;100518.31;4975451;28;45265;-70
2022/06/03 05:27:16;;;;;;;;;8.50;8.00;;;;;17.37;45.94;100519.88;4975908;28;45356;-67
2022/06/03 05:30:19;;;;;;;;;8.25;8.00;;;;;17.47;45.87;100525.41;4975420;28;45427;-68
2022/06/03 05:33:01;;;;;;;;;8.75;7.00;;;;;17.58;46.00;100519.34;4978351;28;45452;-68
2022/06/03 05:35:57;;;;;;;;;7.50;6.75;;;;;17.61;45.82;100527.13;4977791;28;45340;-69
2022/06/03 05:38:41;;;;;;;;;6.50;6.25;;;;;17.69;45.90;100522.09;4978373;27;45369;-68
2022/06/03 05:44:33;;;;;;;;;9.25;8.00;;;;;17.93;45.56;100524.78;4977036;28;45461;-69
2022/06/03 05:47:15;;;;;;;;;7.00;6.00;;;;;18.03;45.57;100498.41;4975954;28;45403;-70
2022/06/03 05:50:17;;;;;;;;;5.00;5.00;;;;;18.07;45.64;100502.53;4976016;28;45353;-69
2022/06/03 05:53:09;;;;;;;;;8.00;8.00;;;;;18.17;45.33;100501.84;4984636;28;45462;-71
2022/06/03 05:55:49;;;;;;;;;9.00;7.50;;;;;18.32;45.22;100508.69;4976681;28;45255;-69
2022/06/03 05:58:26;;;;;;;;;6.75;6.75;;;;;18.46;45.22;100502.38;4973395;28;45292;-69
2022/06/03 06:01:07;;;;;;;;;6.50;6.50;;;;;18.60;44.90;100497.81;4974921;28;45274;-69
2022/06/03 06:03:55;;;;;;;;;8.50;8.50;;;;;18.70;44.92;100501.47;4974528;28;46214;-69
2022/06/03 06:06:59;;;;;;;;;8.00;7.50;;;;;18.83;44.63;100506.72;4974685;28;45260;-68
2022/06/03 06:10:02;;;;;;;;;7.25;7.25;;;;;18.93;44.77;100509.53;4972828;28;45408;-72
2022/06/03 06:12:44;;;;;;;;;10.75;9.00;;;;;18.97;44.74;100508.34;4974640;28;45362;-72
2022/06/03 06:15:21;;;;;;;;;9.50;7.00;;;;;19.02;44.53;100516.00;4975295;28;46182;-69
2022/06/03 06:17:58;;;;;;;;;16.00;14.00;;;;;19.09;44.49;100517.22;4976519;28;45407;-71
2022/06/03 06:20:57;;;;;;;;;9.25;8.00;;;;;19.20;44.31;100511.91;4980673;28;45590;-69
2022/06/03 06:23:40;;;;;;;;;11.00;11.00;;;;;19.43;43.97;100514.59;4991573;28;45277;-71
2022/06/03 06:26:11;;;;;;;;;10.00;9.25;;;;;19.55;43.75;100512.78;4993436;28;45319;-69
2022/06/03 06:29:13;;;;;;;;;10.75;10.75;;;;;19.69;44.37;100511.69;4982711;27;45207;-70
2022/06/03 06:31:50;;;;;;;;;9.50;9.50;;;;;19.87;43.78;100516.50;4974916;28;45445;-74
2022/06/03 06:34:46;;;;;;;;;7.75;7.75;;;;;19.93;43.79;100503.53;4985949;28;45275;-71
2022/06/03 06:37:23;;;;;;;;;9.00;9.00;;;;;19.99;43.75;100511.03;4967208;28;45822;-71
2022/06/03 06:40:06;;;;;;;;;10.50;9.25;;;;;20.04;43.21;100517.84;4976838;28;44867;-71
2022/06/03 06:42:31;;;;;;;;;10.25;10.25;;;;;20.09;43.50;100507.63;4975766;28;45461;-72
2022/06/03 06:45:21;;;;;;;;;10.00;10.00;;;;;20.17;43.35;100507.00;4977210;28;45529;-73
2022/06/03 06:48:02;;;;;;;;;12.50;9.00;;;;;20.25;43.17;100500.06;4978998;28;45317;-71
2022/06/03 06:50:46;;;;;;;;;9.00;9.00;;;;;20.33;43.67;100510.09;4975838;27;45383;-70
2022/06/03 06:53:17;;;;;;;;;10.50;9.25;;;;;20.36;43.25;100496.50;4979190;28;45310;-73
2022/06/03 06:56:09;;;;;;;;;10.50;9.50;;;;;20.48;43.40;100508.00;4977898;28;45386;-71
2022/06/03 06:58:45;;;;;;;;;12.50;10.00;;;;;20.55;43.33;100502.97;4975838;28;46261;-70
2022/06/03 07:01:14;;;;;;;;;9.25;9.00;;;;;20.71;42.80;100507.88;4972980;28;45420;-73
2022/06/03 07:04:03;;;;;;;;;9.25;9.25;;;;;20.68;42.70;100492.09;4973936;28;45390;-69
2022/06/03 07:06:48;;;;;;;;;9.50;9.50;;;;;20.78;43.20;100501.06;4977690;28;45282;-70
2022/06/03 07:09:29;;;;;;;;;10.75;10.00;;;;;20.87;43.12;100502.97;4989731;28;46406;-67
2022/06/03 07:12:09;;;;;;;;;11.00;9.00;;;;;20.99;42.75;100495.72;4992322;28;45426;-70
2022/06/03 07:14:59;;;;;;;;;10.00;9.00;;;;;21.17;42.64;100503.13;4994519;28;45257;-73
2022/06/03 07:20:33;;;;;;;;;10.00;9.00;;;;;21.23;42.04;100501.78;4954298;28;45354;-70
2022/06/03 07:23:40;;;;;;;;;9.00;9.00;;;;;21.20;42.73;100489.50;4954486;28;45401;-68
2022/06/03 07:26:17;;;;;;;;;12.00;12.00;;;;;21.40;42.25;100495.78;5001584;28;45444;-71
2022/06/03 07:28:58;;;;;;;;;11.25;9.75;;;;;21.62;42.11;100501.06;4993152;28;45213;-72
2022/06/03 07:31:35;;;;;;;;;11.50;9.25;;;;;21.81;41.67;100489.59;4985601;28;45422;-70
2022/06/03 07:34:03;;;;;;;;;15.00;10.50;;;;;21.90;41.63;100478.06;5029817;28;45473;-70
2022/06/03 07:36:41;;;;;;;;;6.00;6.00;;;;;22.12;41.59;100494.88;4971691;28;45438;-69
2022/06/03 07:39:36;;;;;;;;;8.00;7.50;;;;;22.17;41.41;100508.69;4976503;28;45732;-71
2022/06/03 07:42:16;;;;;;;;;10.25;9.75;;;;;22.15;41.21;100503.50;4975156;28;45490;-70
2022/06/03 07:44:51;;;;;;;;;13.25;11.25;;;;;22.03;41.79;100505.44;4975368;28;45265;-72
2022/06/03 07:47:18;;;;;;;;;8.75;8.75;;;;;22.15;41.96;100518.69;4992343;28;45333;-70
2022/06/03 07:49:53;;;;;;;;;12.50;11.25;;;;;22.22;41.84;100519.84;4993095;28;45230;-70
2022/06/03 07:52:32;;;;;;;;;12.00;11.75;;;;;22.34;41.64;100520.56;4994397;28;45356;-71
2022/06/03 07:54:59;;;;;;;;;10.00;10.00;;;;;22.49;41.83;100523.72;4992625;28;45249;-68
2022/06/03 07:57:28;;;;;;;;;13.75;13.00;;;;;22.61;41.82;100519.91;4992384;27;45428;-71
2022/06/03 07:59:59;;;;;;;;;12.50;12.50;;;;;22.64;41.36;100526.78;4991028;28;45382;-71
2022/06/03 08:02:26;;;;;;;;;11.25;10.50;;;;;22.65;41.48;100524.97;4992443;27;46343;-71
2022/06/03 08:05:13;;;;;;;;;11.50;10.50;;;;;22.75;41.44;100523.97;4992290;28;45346;-70
2022/06/03 08:13:18;;;;;;;;;10.75;10.75;;;;;22.80;41.16;100517.31;4992303;28;45278;-71
2022/06/03 08:15:53;;;;;;;;;11.50;11.50;;;;;22.86;41.01;100520.28;4993390;28;45418;-72
2022/06/03 08:18:19;;;;;;;;;12.00;8.25;;;;;22.88;41.69;100510.25;4993728;28;45394;-70
2022/06/03 08:20:50;;;;;;;;;13.50;12.25;;;;;23.00;41.08;100521.69;4993988;28;45329;-70
2022/06/03 08:23:18;;;;;;;;;12.25;11.75;;;;;23.16;41.25;100521.06;4993271;28;45427;-70
2022/06/03 08:25:46;;;;;;;;;12.25;12.25;;;;;23.20;40.90;100514.41;4994224;27;45272;-71
2022/06/03 08:28:20;;;;;;;;;11.25;11.00;;;;;23.29;41.17;100522.59;4994068;28;45341;-69
2022/06/03 08:30:49;;;;;;;;;13.00;13.00;;;;;23.41;40.79;100525.97;4995064;28;45244;-70
2022/06/03 08:33:18;;;;;;;;;11.50;10.00;;;;;23.53;40.16;100526.63;4993441;27;45362;-72
2022/06/03 08:35:46;;;;;;;;;14.00;14.00;;;;;23.42;40.73;100490.09;4992579;28;45490;-70
2022/06/03 08:38:17;;;;;;;;;15.00;14.00;;;;;23.78;39.86;100509.84;4991809;28;45432;-69
2022/06/03 08:40:45;;;;;;;;;14.25;14.00;;;;;23.87;40.29;100512.59;4991136;28;45286;-70
2022/06/03 08:43:32;;;;;;;;;15.25;15.25;;;;;23.95;39.97;100507.31;4992348;27;46474;-70
2022/06/03 08:46:17;;;;;;;;;9.00;9.00;;;;;24.11;40.17;100505.84;4992091;28;45381;-71
2022/06/03 08:48:45;;;;;;;;;14.75;13.00;;;;;24.28;39.38;100506.84;4992138;28;45293;-69
2022/06/03 08:51:17;;;;;;;;;14.25;14.25;;;;;24.38;39.61;100496.88;4992072;28;45177;-69
2022/06/03 08:53:57;;;;;;;;;12.75;10.00;;;;;24.40;39.99;100497.56;4991629;28;45464;-70
2022/06/03 08:56:30;;;;;;;;;13.25;11.75;;;;;24.56;39.45;100496.88;4991892;28;45278;-71
2022/06/03 08:58:58;;;;;;;;;19.00;17.75;;;;;24.60;39.33;100495.56;4991670;28;45200;-70
2022/06/03 09:01:51;;;;;;;;;12.50;12.50;;;;;24.67;39.50;100494.94;4990488;28;45634;-70
2022/06/03 09:04:22;;;;;;;;;12.25;11.00;;;;;24.68;38.78;100492.06;4991362;27;46279;-69
2022/06/03 09:07:01;;;;;;;;;8.00;8.00;;;;;24.79;39.37;100494.53;4991404;28;45431;-70
2022/06/03 09:09:35;;;;;;;;;10.25;10.25;;;;;24.86;38.90;100494.75;4997691;28;45222;-71
2022/06/03 09:12:14;;;;;;;;;14.50;14.50;;;;;24.97;39.11;100490.97;4991867;27;45286;-70
2022/06/03 09:14:47;;;;;;;;;16.75;13.00;;;;;25.04;38.52;100483.09;4993026;28;45452;-72
2022/06/03 09:17:24;;;;;;;;;12.25;10.75;;;;;25.09;38.96;100483.47;4991443;28;45213;-68
2022/06/03 09:19:54;;;;;;;;;12.00;12.00;;;;;25.11;39.04;100496.78;4993526;28;45259;-69
2022/06/03 09:22:28;;;;;;;;;8.50;7.25;;;;;25.12;39.19;100493.91;4993116;28;45385;-71
2022/06/03 09:24:56;;;;;;;;;15.25;12.75;;;;;25.10;38.74;100490.53;4994128;28;47144;-70
2022/06/03 09:27:22;;;;;;;;;11.75;11.75;;;;;25.20;39.10;100479.66;4994242;27;45276;-70
2022/06/03 09:29:54;;;;;;;;;13.75;12.25;;;;;25.29;39.01;100488.59;4993875;27;45350;-70
2022/06/03 09:32:22;;;;;;;;;10.00;10.00;;;;;25.32;38.90;100488.28;4994224;28;45406;-70
2022/06/03 09:34:52;;;;;;;;;11.75;10.25;;;;;25.34;38.88;100495.22;4993773;27;46130;-70
2022/06/03 09:37:24;;;;;;;;;17.50;17.00;;;;;25.34;39.14;100502.44;4995341;28;45409;-71
2022/06/03 09:39:50;;;;;;;;;18.25;17.00;;;;;25.45;39.15;100501.31;4994043;28;45305;-70
2022/06/03 09:42:19;;;;;;;;;18.75;18.00;;;;;25.64;38.74;100508.34;4994744;28;45860;-69
2022/06/03 09:44:48;;;;;;;;;10.75;9.00;;;;;25.76;38.90;100516.94;4995066;28;45440;-70
2022/06/03 09:47:18;;;;;;;;;14.75;13.00;;;;;25.88;38.43;100536.38;4994174;28;45255;-70
2022/06/03 09:49:46;;;;;;;;;14.50;14.50;;;;;26.02;38.40;100530.34;4994473;28;45362;-69
2022/06/03 09:52:15;;;;;;;;;13.50;13.50;;;;;26.17;38.40;100525.19;4995776;28;45646;-71
2022/06/03 09:54:43;;;;;;;;;23.75;22.25;;;;;26.30;38.47;100534.66;4993828;28;45405;-69
2022/06/03 09:57:32;;;;;;;;;15.75;15.75;;;;;26.42;38.40;100554.03;4992744;27;45463;-70
2022/06/03 10:00:13;;;;;;;;;17.75;15.00;;;;;26.48;38.20;100531.78;4994313;27;45333;-70
2022/06/03 10:02:39;;;;;;;;;17.25;16.25;;;;;26.52;38.14;100515.09;4994398;28;45288;-70
2022/06/03 10:05:06;;;;;;;;;24.25;21.00;;;;;26.62;38.22;100541.06;4994241;27;46272;-72
2022/06/03 10:07:33;;;;;;;;;19.25;19.25;;;;;26.66;38.11;100531.63;4994782;27;45414;-72
2022/06/03 10:12:49;;;;;;;;;30.25;27.25;;;;;26.67;38.69;100528.78;4994666;28;45333;-69
2022/06/03 10:18:05;;;;;;;;;28.25;24.00;;;;;26.77;38.79;100515.09;4993583;28;45398;-71
2022/06/03 10:20:34;;;;;;;;;23.00;20.75;;;;;26.87;38.02;100514.97;4994317;27;45426;-71
2022/06/03 10:23:02;;;;;;;;;18.25;15.50;;;;;26.87;37.94;100527.59;4994549;28;45366;-71
2022/06/03 10:25:27;;;;;;;;;8.50;4.50;;;;;26.89;38.00;100517.47;4994434;27;46073;-69
2022/06/03 10:27:53;;;;;;;;;19.00;19.00;;;;;26.98;37.69;100503.81;4995891;28;45370;-71
2022/06/03 10:30:30;;;;;;;;;24.25;22.25;;;;;27.12;37.89;100520.31;4993128;27;45278;-70
2022/06/03 10:32:56;;;;;;;;;16.25;13.25;;;;;27.17;37.74;100515.22;4995009;28;45381;-70
2022/06/03 10:35:27;;;;;;;;;23.25;18.50;;;;;27.21;38.27;100511.19;4994230;27;45486;-69
2022/06/03 10:38:00;;;;;;;;;20.50;18.00;;;;;27.28;38.25;100519.44;4993956;28;45337;-71
2022/06/03 10:40:26;;;;;;;;;16.50;16.50;;;;;27.41;38.43;100519.72;4994256;27;45291;-72
2022/06/03 10:42:57;;;;;;;;;25.75;24.25;;;;;27.56;38.66;100517.16;4994034;27;45439;-71
2022/06/03 10:45:33;;;;;;;;;16.50;12.25;;;;;27.64;37.89;100512.75;4995099;28;46361;-70
2022/06/03 10:48:00;;;;;;;;;15.00;15.00;;;;;27.65;37.96;100517.97;4996644;28;45456;-70
2022/06/03 10:50:38;;;;;;;;;26.25;22.00;;;;;27.82;38.43;100520.59;4996111;28;45449;-70
2022/06/03 11:01:48;;;;;;;;;18.00;17.50;;;;;28.61;37.34;100518.75;5014362;28;45301;-70
2022/06/03 11:04:23;;;;;;;;;18.00;16.00;;;;;28.62;36.97;100512.31;4994443;28;45310;-70
2022/06/03 11:06:49;;;;;;;;;18.25;17.00;;;;;28.74;37.06;100518.97;4993537;28;46297;-70
2022/06/03 11:09:15;;;;;;;;;20.25;18.25;;;;;28.92;37.01;100515.97;4991352;28;45170;-71
2022/06/03 11:11:43;;;;;;;;;16.75;15.50;;;;;29.05;36.77;100526.13;4993190;28;45333;-71
2022/06/03 11:14:30;;;;;;;;;24.00;21.75;;;;;29.19;36.39;100523.66;4993354;28;45558;-70
2022/06/03 11:16:59;;;;;;;;;26.75;24.25;;;;;29.27;36.32;100529.81;4975353;27;45990;-71
2022/06/03 11:19:25;;;;;;;;;20.50;19.25;;;;;29.42;37.14;100531.69;4992953;27;45343;-71
2022/06/03 11:22:16;;;;;;;;;17.00;15.75;;;;;29.59;36.92;100540.47;4993224;27;45397;-71
2022/06/03 11:24:50;;;;;;;;;17.00;15.25;;;;;29.61;36.92;100543.00;4992094;28;45575;-70
2022/06/03 11:27:19;;;;;;;;;13.00;13.00;;;;;29.49;36.38;100550.78;4994697;28;46188;-70
2022/06/03 11:29:47;;;;;;;;;24.75;23.50;;;;;29.39;37.00;100551.91;4993766;28;45356;-70
2022/06/03 11:32:16;;;;;;;;;19.50;18.50;;;;;29.37;37.24;100548.50;4993468;28;45378;-71
2022/06/03 11:34:54;;;;;;;;;18.75;16.50;;;;;29.22;36.97;100547.66;4992189;28;45808;-71
2022/06/03 11:37:29;;;;;;;;;14.75;14.75;;;;;29.11;37.14;100538.94;4993212;27;47631;-72
2022/06/03 11:40:12;;;;;;;;;15.50;14.00;;;;;28.97;37.67;100546.03;4993758;28;45383;-70
2022/06/03 11:42:50;;;;;;;;;14.00;13.00;;;;;28.66;38.17;100546.97;4992106;28;45181;-70
2022/06/03 11:45:22;;;;;;;;;13.50;13.50;;;;;28.34;38.40;100542.63;4993959;28;45417;-71
2022/06/03 11:48:03;;;;;;;;;17.25;15.00;;;;;28.10;38.83;100550.69;4994585;28;45286;-71
2022/06/03 11:50:31;;;;;;;;;14.00;12.00;;;;;27.92;38.62;100558.22;4993562;27;45333;-70
2022/06/03 11:52:58;;;;;;;;;14.75;14.75;;;;;27.69;39.46;100556.31;4992686;27;45243;-70
2022/06/03 11:55:26;;;;;;;;;16.50;15.50;;;;;27.45;39.90;100549.91;4991539;27;45245;-71
2022/06/03 11:58:12;;;;;;;;;15.75;14.75;;;;;27.26;40.20;100557.41;4993962;27;45424;-69
2022/06/03 12:00:44;;;;;;;;;13.00;12.25;;;;;27.06;40.60;100548.00;4993602;28;45399;-70
2022/06/03 12:03:38;;;;;;;;;14.75;13.50;;;;;26.80;41.80;100557.09;4993281;27;45194;-71
2022/06/03 12:06:29;;;;;;;;;14.00;14.00;;;;;26.57;42.27;100555.06;4991850;27;45287;-70
2022/06/03 12:08:58;;;;;;;;;15.25;13.50;;;;;26.34;43.14;100557.56;4992994;27;45226;-69
2022/06/03 12:14:33;;;;;;;;;13.00;13.00;;;;;25.93;45.09;100564.50;4993410;28;45207;-70
2022/06/03 12:17:22;;;;;;;;;12.25;12.25;;;;;25.74;44.97;100559.38;4995227;27;45279;-70
2022/06/03 12:19:50;;;;;;;;;15.50;14.75;;;;;25.45;45.29;100530.94;4994292;28;46304;-70
2022/06/03 12:22:30;;;;;;;;;18.25;17.00;;;;;25.48;46.15;100558.44;4992642;28;45409;-70
2022/06/03 12:24:58;;;;;;;;;12.50;10.75;;;;;25.39;46.18;100559.31;4993434;28;45407;-71
2022/06/03 12:27:39;;;;;;;;;14.00;14.00;;;;;25.32;46.42;100564.53;4993937;28;45426;-71
2022/06/03 12:30:30;;;;;;;;;16.25;13.25;;;;;25.23;47.40;100550.16;4992610;27;46207;-71
2022/06/03 12:33:03;;;;;;;;;16.00;15.25;;;;;25.16;47.54;100562.56;4992112;28;45731;-70
2022/06/03 12:35:44;;;;;;;;;12.75;12.75;;;;;25.04;47.57;100559.31;4993729;28;45223;-70
2022/06/03 12:38:22;;;;;;;;;16.00;16.00;;;;;24.92;48.45;100564.06;4993290;28;45587;-70
2022/06/03 12:40:50;;;;;;;;;13.75;12.25;;;;;24.78;49.31;100562.78;4991921;28;46206;-69
2022/06/03 12:43:28;;;;;;;;;15.25;12.25;;;;;24.61;50.12;100561.78;4991948;28;45357;-70
2022/06/03 12:46:01;;;;;;;;;14.00;13.00;;;;;24.43;51.04;100559.06;4994249;28;45423;-70
2022/06/03 12:48:51;;;;;;;;;24.50;21.00;;;;;24.27;51.32;100559.75;4993401;27;45519;-70
2022/06/03 12:51:28;;;;;;;;;23.00;20.00;;;;;24.11;52.71;100559.56;4991921;28;46375;-70
2022/06/03 12:54:26;;;;;;;;;14.25;14.25;;;;;23.84;52.90;100554.03;4992782;28;45227;-71